Time;durP1;ratioP1;P1;durP2;ratioP2;P2;SDS_P1;SDS_P2;PMS_P1;PMS_P2;Temp;Humidity;BMP_temperature;BMP_pressure;BME280_temperature;BME280_humidity;BME280_pressure;Samples;Min_cycle;Max_cycle;Signal;HPM_P1;HPM_P2
2023/10/03 00:00:15;;;;;;;1999.90;999.90;;;19.70;99.90;;;;;;5112882;28;20417;-69
2023/10/03 00:02:41;;;;;;;1999.90;999.90;;;19.70;99.90;;;;;;5113227;28;20400;-69
2023/10/03 00:05:08;;;;;;;1999.90;999.90;;;19.60;99.90;;;;;;5113140;28;20846;-69
2023/10/03 00:07:34;;;;;;;1999.90;999.90;;;19.60;99.90;;;;;;5112895;28;20785;-69
2023/10/03 00:09:59;;;;;;;1999.90;999.90;;;19.50;99.90;;;;;;5112893;28;20422;-69
2023/10/03 00:12:25;;;;;;;1999.90;999.90;;;19.60;99.90;;;;;;5112794;28;20424;-69
2023/10/03 00:14:51;;;;;;;1999.90;999.90;;;19.60;99.90;;;;;;5112990;28;20232;-69
2023/10/03 00:17:16;;;;;;;1999.90;999.90;;;19.60;99.90;;;;;;5112789;28;20173;-69
2023/10/03 00:19:42;;;;;;;1999.90;999.90;;;19.60;99.90;;;;;;5112735;28;20412;-69
2023/10/03 00:22:07;;;;;;;1999.90;999.90;;;19.60;99.90;;;;;;5112781;28;20211;-69
2023/10/03 00:24:33;;;;;;;1999.90;999.90;;;19.60;99.90;;;;;;5112716;28;20188;-69
2023/10/03 00:26:59;;;;;;;1999.90;999.90;;;19.60;99.90;;;;;;5112490;28;20627;-69
2023/10/03 00:29:29;;;;;;;1999.90;999.90;;;19.60;99.90;;;;;;5112804;28;20177;-69
2023/10/03 00:31:58;;;;;;;1999.90;999.90;;;19.60;99.90;;;;;;5112743;28;20491;-69
2023/10/03 00:34:24;;;;;;;1999.90;999.90;;;19.60;99.90;;;;;;5112550;28;20565;-69
2023/10/03 00:36:52;;;;;;;1999.90;999.90;;;19.70;99.90;;;;;;5112443;28;20905;-69
2023/10/03 00:39:18;;;;;;;1999.90;999.90;;;19.80;99.90;;;;;;5112398;28;20191;-69
2023/10/03 00:41:44;;;;;;;1999.90;999.90;;;19.80;99.90;;;;;;5112471;28;20414;-69
2023/10/03 00:44:10;;;;;;;1999.90;999.90;;;19.90;99.90;;;;;;5112647;28;20316;-69
2023/10/03 00:46:35;;;;;;;1999.90;999.90;;;19.90;99.90;;;;;;5112080;28;20171;-69
2023/10/03 00:49:05;;;;;;;1999.90;999.90;;;20.00;99.90;;;;;;5112334;28;20407;-69
2023/10/03 00:51:31;;;;;;;1999.90;999.90;;;20.00;99.90;;;;;;5112229;28;20278;-69
2023/10/03 00:53:59;;;;;;;1999.90;999.90;;;20.00;99.90;;;;;;5112194;28;20779;-69
2023/10/03 00:56:25;;;;;;;1999.90;999.90;;;20.10;99.90;;;;;;5112331;28;20893;-69
2023/10/03 00:58:51;;;;;;;1999.90;999.90;;;20.00;99.90;;;;;;5112352;28;20406;-68
2023/10/03 01:01:18;;;;;;;1999.90;999.90;;;20.00;99.90;;;;;;5112433;28;20205;-69
2023/10/03 01:03:47;;;;;;;1999.90;999.90;;;20.00;99.90;;;;;;5112372;28;20499;-69
2023/10/03 01:06:15;;;;;;;1999.90;999.90;;;19.90;99.90;;;;;;5112073;28;20416;-69
2023/10/03 01:08:48;;;;;;;1999.90;999.90;;;19.90;99.90;;;;;;5112192;28;20415;-69
2023/10/03 01:11:15;;;;;;;1999.90;999.90;;;19.90;99.90;;;;;;5114436;28;20450;-69
2023/10/03 01:14:00;;;;;;;1999.90;999.90;;;19.90;99.90;;;;;;5116626;28;20408;-69
2023/10/03 01:16:32;;;;;;;1999.90;999.90;;;19.90;99.90;;;;;;5116289;28;20423;-69
2023/10/03 01:18:59;;;;;;;1999.90;999.90;;;19.80;99.90;;;;;;5116304;28;20444;-69
2023/10/03 01:21:28;;;;;;;1999.90;999.90;;;19.80;99.90;;;;;;5116354;28;20875;-68
2023/10/03 01:23:54;;;;;;;1999.90;999.90;;;19.80;99.90;;;;;;5116279;28;20405;-69
2023/10/03 01:26:21;;;;;;;1999.90;999.90;;;19.80;99.90;;;;;;5116006;28;20411;-69
2023/10/03 01:28:46;;;;;;;1999.90;999.90;;;19.80;99.90;;;;;;5116257;28;20861;-69
2023/10/03 01:31:12;;;;;;;1999.90;999.90;;;19.80;99.90;;;;;;5116119;28;20511;-70
2023/10/03 01:33:39;;;;;;;1999.90;999.90;;;19.80;99.90;;;;;;5115940;28;20169;-69
2023/10/03 01:36:06;;;;;;;1999.90;999.90;;;19.90;99.90;;;;;;5115883;28;20210;-68
2023/10/03 01:38:31;;;;;;;1999.90;999.90;;;19.90;99.90;;;;;;5116471;28;20409;-69
2023/10/03 01:41:00;;;;;;;1999.90;999.90;;;19.90;99.90;;;;;;5116339;28;20950;-68
2023/10/03 01:43:26;;;;;;;1999.90;999.90;;;19.90;99.90;;;;;;5116350;28;20179;-69
2023/10/03 01:45:53;;;;;;;1999.90;999.90;;;19.90;99.90;;;;;;5115684;28;20407;-69
2023/10/03 01:48:19;;;;;;;1999.90;999.90;;;19.90;99.90;;;;;;5115641;28;20382;-69
2023/10/03 01:50:45;;;;;;;1999.90;999.90;;;19.70;99.90;;;;;;5115791;28;20915;-69
2023/10/03 01:53:11;;;;;;;1999.90;999.90;;;19.90;99.90;;;;;;5115621;28;20418;-69
2023/10/03 01:55:37;;;;;;;1999.90;999.90;;;19.90;99.90;;;;;;5115614;28;20202;-69
2023/10/03 01:58:04;;;;;;;1999.90;999.90;;;19.90;99.90;;;;;;5115330;28;20391;-69
2023/10/03 02:00:30;;;;;;;1999.90;999.90;;;19.90;99.90;;;;;;5115481;28;20455;-69
2023/10/03 02:02:58;;;;;;;1999.90;999.90;;;19.90;99.90;;;;;;5115454;28;20899;-69
2023/10/03 02:05:27;;;;;;;1999.90;999.90;;;19.90;99.90;;;;;;5115425;28;20907;-69
2023/10/03 02:07:55;;;;;;;1999.90;999.90;;;19.90;99.90;;;;;;5115157;28;20936;-69
2023/10/03 02:10:22;;;;;;;1999.90;999.90;;;19.90;99.90;;;;;;5115190;28;20431;-70
2023/10/03 02:12:51;;;;;;;1999.90;999.90;;;19.90;99.90;;;;;;5115182;28;20434;-68
2023/10/03 02:15:22;;;;;;;1999.90;999.90;;;20.00;99.90;;;;;;5115064;28;20443;-70
2023/10/03 02:17:52;;;;;;;1999.90;999.90;;;20.00;99.90;;;;;;5115194;28;20856;-69
2023/10/03 02:20:25;;;;;;;1999.90;999.90;;;20.10;99.90;;;;;;5115056;28;20454;-69
2023/10/03 02:22:55;;;;;;;1999.90;999.90;;;20.20;99.90;;;;;;5114819;28;20427;-69
2023/10/03 02:25:22;;;;;;;1999.90;999.90;;;20.40;99.90;;;;;;5115169;28;20451;-69
2023/10/03 02:27:49;;;;;;;1999.90;999.90;;;20.60;99.90;;;;;;5114679;28;20402;-69
2023/10/03 02:30:19;;;;;;;1999.90;999.90;;;20.80;99.90;;;;;;5114907;28;20433;-69
2023/10/03 02:32:45;;;;;;;1999.90;999.90;;;20.90;99.90;;;;;;5115014;28;20413;-69
2023/10/03 02:35:13;;;;;;;1999.90;999.90;;;21.00;99.90;;;;;;5114658;28;20772;-69
2023/10/03 02:37:39;;;;;;;1999.90;999.90;;;21.10;99.90;;;;;;5114540;28;20214;-70
2023/10/03 02:40:08;;;;;;;1999.90;999.90;;;21.20;99.90;;;;;;5114738;28;20426;-69
2023/10/03 02:42:38;;;;;;;1999.90;999.90;;;21.50;99.90;;;;;;5114920;28;20641;-69
2023/10/03 02:45:05;;;;;;;1999.90;999.90;;;21.60;99.90;;;;;;5115049;28;20486;-69
2023/10/03 02:47:33;;;;;;;1999.90;999.90;;;21.70;99.90;;;;;;5114916;28;20420;-69
2023/10/03 02:49:59;;;;;;;1999.90;999.90;;;21.90;99.90;;;;;;5114887;28;20439;-70
2023/10/03 02:52:25;;;;;;;1999.90;999.90;;;22.00;99.90;;;;;;5114534;28;20901;-69
2023/10/03 02:54:51;;;;;;;1999.90;999.90;;;22.10;99.90;;;;;;5114341;28;20193;-69
2023/10/03 02:57:18;;;;;;;1999.90;999.90;;;22.10;99.90;;;;;;5114500;28;20490;-69
2023/10/03 02:59:44;;;;;;;1999.90;999.90;;;22.20;99.90;;;;;;5114251;28;20519;-69
2023/10/03 03:02:14;;;;;;;1999.90;999.90;;;22.20;99.90;;;;;;5114396;28;20388;-70
2023/10/03 03:04:41;;;;;;;1999.90;999.90;;;22.20;99.90;;;;;;5114237;28;20878;-70
2023/10/03 03:07:08;;;;;;;1999.90;999.90;;;22.20;99.90;;;;;;5114023;28;20919;-68
2023/10/03 03:09:36;;;;;;;1999.90;999.90;;;22.30;99.90;;;;;;5114250;28;20510;-69
2023/10/03 03:12:03;;;;;;;1999.90;999.90;;;22.30;99.90;;;;;;5114006;28;20435;-69
2023/10/03 03:14:29;;;;;;;1999.90;999.90;;;22.30;99.90;;;;;;5114017;28;20422;-68
2023/10/03 03:16:56;;;;;;;1999.90;999.90;;;22.30;99.90;;;;;;5113949;28;20382;-69
2023/10/03 03:19:23;;;;;;;1999.90;999.90;;;22.30;99.90;;;;;;5114139;28;20370;-69
2023/10/03 03:21:50;;;;;;;1999.90;999.90;;;22.30;99.90;;;;;;5113971;28;20374;-69
2023/10/03 03:24:17;;;;;;;1999.90;999.90;;;22.30;99.90;;;;;;5114288;28;20390;-69
2023/10/03 03:26:47;;;;;;;1999.90;999.90;;;22.30;99.90;;;;;;5114204;28;20385;-69
2023/10/03 03:29:20;;;;;;;1999.90;999.90;;;22.70;99.90;;;;;;5113915;28;20378;-68
2023/10/03 03:31:46;;;;;;;1999.90;999.90;;;22.40;99.90;;;;;;5113982;28;20374;-69
2023/10/03 03:34:12;;;;;;;1999.90;999.90;;;22.40;99.90;;;;;;5113276;28;20741;-69
2023/10/03 03:36:40;;;;;;;1999.90;999.90;;;22.50;99.90;;;;;;5113697;28;20415;-69
2023/10/03 03:39:15;;;;;;;1999.90;999.90;;;22.50;99.90;;;;;;5113941;28;20173;-69
2023/10/03 03:41:42;;;;;;;1999.90;999.90;;;22.50;99.90;;;;;;5113677;28;20384;-70
2023/10/03 03:44:13;;;;;;;1999.90;999.90;;;22.50;99.90;;;;;;5113842;28;20411;-69
2023/10/03 03:46:40;;;;;;;1999.90;999.90;;;22.50;99.90;;;;;;5113880;28;20584;-69
2023/10/03 03:49:10;;;;;;;1999.90;999.90;;;22.60;99.90;;;;;;5113539;28;20423;-71
2023/10/03 03:51:36;;;;;;;1999.90;999.90;;;22.60;99.90;;;;;;5113835;28;20389;-68
2023/10/03 03:54:05;;;;;;;1999.90;999.90;;;22.60;99.90;;;;;;5113486;28;20378;-69
2023/10/03 03:56:33;;;;;;;1999.90;999.90;;;22.60;99.90;;;;;;5114254;28;20415;-70
2023/10/03 03:58:58;;;;;;;1999.90;999.90;;;22.60;99.90;;;;;;5114360;28;20463;-70
2023/10/03 04:01:24;;;;;;;1999.90;999.90;;;22.60;99.90;;;;;;5113902;28;20411;-69
2023/10/03 04:03:50;;;;;;;1999.90;999.90;;;22.60;99.90;;;;;;5113461;28;20211;-69
2023/10/03 04:06:18;;;;;;;1999.90;999.90;;;22.60;99.90;;;;;;5113473;28;20179;-69
2023/10/03 04:08:45;;;;;;;1999.90;999.90;;;22.60;99.90;;;;;;5113699;28;20399;-69
2023/10/03 04:11:12;;;;;;;1999.90;999.90;;;22.50;99.90;;;;;;5113563;28;20492;-70
2023/10/03 04:13:50;;;;;;;1999.90;999.90;;;22.60;99.90;;;;;;5113584;28;20403;-69
2023/10/03 04:16:22;;;;;;;1999.90;999.90;;;22.50;99.90;;;;;;5113082;28;20449;-70
2023/10/03 04:18:50;;;;;;;1999.90;999.90;;;22.50;99.90;;;;;;5113349;28;20407;-69
2023/10/03 04:21:17;;;;;;;1999.90;999.90;;;22.50;99.90;;;;;;5112949;28;20424;-69
2023/10/03 04:23:44;;;;;;;1999.90;999.90;;;22.40;99.90;;;;;;5113716;28;20460;-69
2023/10/03 04:26:10;;;;;;;1999.90;999.90;;;22.30;99.90;;;;;;5112877;28;20429;-69
2023/10/03 04:28:36;;;;;;;1999.90;999.90;;;22.30;99.90;;;;;;5112928;28;20389;-69
2023/10/03 04:31:03;;;;;;;1999.90;999.90;;;22.30;99.90;;;;;;5112948;28;20216;-69
2023/10/03 04:33:29;;;;;;;1999.90;999.90;;;22.20;99.90;;;;;;5112977;28;20520;-70
2023/10/03 04:35:56;;;;;;;1999.90;999.90;;;22.20;99.90;;;;;;5112755;28;20197;-69
2023/10/03 04:38:22;;;;;;;1999.90;999.90;;;22.20;99.90;;;;;;5113188;28;20166;-69
2023/10/03 04:40:47;;;;;;;1999.90;999.90;;;22.20;99.90;;;;;;5112873;28;20906;-69
2023/10/03 04:43:14;;;;;;;1999.90;999.90;;;22.20;99.90;;;;;;5113097;28;20712;-70
2023/10/03 04:45:41;;;;;;;1999.90;999.90;;;22.10;99.90;;;;;;5112243;28;20846;-69
2023/10/03 04:48:08;;;;;;;1999.90;999.90;;;22.20;99.90;;;;;;5112950;28;20408;-69
2023/10/03 04:50:39;;;;;;;1999.90;999.90;;;22.10;99.90;;;;;;5112958;28;20434;-70
2023/10/03 04:53:07;;;;;;;1999.90;999.90;;;22.10;99.90;;;;;;5112590;28;20435;-69
2023/10/03 04:55:33;;;;;;;1999.90;999.90;;;22.00;99.90;;;;;;5112441;28;20454;-69
2023/10/03 04:57:59;;;;;;;1999.90;999.90;;;22.00;99.90;;;;;;5112624;28;20750;-68
2023/10/03 05:00:26;;;;;;;1999.90;999.90;;;22.00;99.90;;;;;;5112760;28;20674;-69
2023/10/03 05:02:53;;;;;;;1999.90;999.90;;;21.90;99.90;;;;;;5112653;28;20912;-69
2023/10/03 05:05:24;;;;;;;1999.90;999.90;;;21.80;99.90;;;;;;5112647;28;20410;-69
2023/10/03 05:07:53;;;;;;;1999.90;999.90;;;21.80;99.90;;;;;;5112575;28;20386;-69
2023/10/03 05:10:20;;;;;;;1999.90;999.90;;;21.80;99.90;;;;;;5112741;28;20410;-68
2023/10/03 05:12:47;;;;;;;1999.90;999.90;;;21.80;99.90;;;;;;5112586;28;20422;-69
2023/10/03 05:15:16;;;;;;;1999.90;999.90;;;21.90;99.90;;;;;;5112785;28;20428;-70
2023/10/03 05:17:48;;;;;;;1999.90;999.90;;;21.90;99.90;;;;;;5112452;28;20460;-69
2023/10/03 05:20:17;;;;;;;1999.90;999.90;;;22.00;99.90;;;;;;5112596;28;20461;-69
2023/10/03 05:22:45;;;;;;;1999.90;999.90;;;21.90;99.90;;;;;;5112858;28;20446;-69
2023/10/03 05:25:12;;;;;;;1999.90;999.90;;;21.90;99.90;;;;;;5112863;28;20892;-68
2023/10/03 05:27:41;;;;;;;1999.90;999.90;;;21.90;99.90;;;;;;5111807;28;20396;-68
2023/10/03 05:30:08;;;;;;;1999.90;999.90;;;21.90;99.90;;;;;;5112064;28;20405;-68
2023/10/03 05:32:35;;;;;;;1999.90;999.90;;;21.80;99.90;;;;;;5112038;28;20501;-68
2023/10/03 05:35:01;;;;;;;1999.90;999.90;;;21.80;99.90;;;;;;5112150;28;20785;-68
2023/10/03 05:37:27;;;;;;;1999.90;999.90;;;21.80;99.90;;;;;;5111756;28;20486;-68
2023/10/03 05:39:53;;;;;;;1999.90;999.90;;;21.70;99.90;;;;;;5094473;28;20847;-68
2023/10/03 05:42:19;;;;;;;1999.90;999.90;;;21.70;99.90;;;;;;5103468;28;20560;-67
2023/10/03 05:44:46;;;;;;;1999.90;999.90;;;21.70;99.90;;;;;;5103444;28;20389;-69
2023/10/03 05:47:12;;;;;;;1999.90;999.90;;;21.70;99.90;;;;;;5111672;28;20415;-69
2023/10/03 05:49:38;;;;;;;1999.90;999.90;;;21.70;99.90;;;;;;5110729;28;20449;-68
2023/10/03 05:52:03;;;;;;;1999.90;999.90;;;21.70;99.90;;;;;;5071150;28;20416;-69
2023/10/03 05:54:32;;;;;;;1999.90;999.90;;;21.70;99.90;;;;;;5071163;28;20507;-67
2023/10/03 05:56:58;;;;;;;1999.90;999.90;;;21.70;99.90;;;;;;5072731;28;20199;-69
2023/10/03 05:59:23;;;;;;;1999.90;999.90;;;21.80;99.90;;;;;;5074774;28;20383;-68
2023/10/03 06:01:49;;;;;;;1999.90;999.90;;;21.60;99.90;;;;;;5074836;28;20181;-68
2023/10/03 06:04:15;;;;;;;1999.90;999.90;;;21.60;99.90;;;;;;5074805;28;20438;-68
2023/10/03 06:06:41;;;;;;;1999.90;999.90;;;21.50;99.90;;;;;;5074499;28;20181;-67
2023/10/03 06:09:10;;;;;;;1999.90;999.90;;;21.50;99.90;;;;;;5074774;28;20623;-68
2023/10/03 06:11:36;;;;;;;1999.90;999.90;;;21.50;99.90;;;;;;5074417;28;20550;-68
2023/10/03 06:14:03;;;;;;;1999.90;999.90;;;21.50;99.90;;;;;;5074642;28;20823;-69
2023/10/03 06:16:30;;;;;;;1999.90;999.90;;;21.50;99.90;;;;;;5074261;28;20460;-69
2023/10/03 06:18:56;;;;;;;1999.90;999.90;;;21.50;99.90;;;;;;5074479;28;20419;-69
2023/10/03 06:21:25;;;;;;;1999.90;999.90;;;21.40;99.90;;;;;;5074247;28;20435;-69
2023/10/03 06:23:51;;;;;;;1999.90;999.90;;;21.40;99.90;;;;;;5074476;28;20734;-69
2023/10/03 06:26:18;;;;;;;1999.90;999.90;;;21.40;99.90;;;;;;5074177;28;20422;-69
2023/10/03 06:28:50;;;;;;;1999.90;999.90;;;21.30;99.90;;;;;;5074324;28;20166;-69
2023/10/03 06:31:21;;;;;;;1999.90;999.90;;;21.30;99.90;;;;;;5074119;28;20424;-69
2023/10/03 06:33:47;;;;;;;1999.90;999.90;;;21.30;99.90;;;;;;5074176;28;21240;-69
2023/10/03 06:36:12;;;;;;;1999.90;999.90;;;21.20;99.90;;;;;;5073851;28;20456;-69
2023/10/03 06:38:41;;;;;;;1999.90;999.90;;;21.20;99.90;;;;;;5074111;28;20769;-69
2023/10/03 06:41:07;;;;;;;1999.90;999.90;;;21.10;99.90;;;;;;5074051;28;20600;-69
2023/10/03 06:43:33;;;;;;;1999.90;999.90;;;21.10;99.90;;;;;;5073978;28;20396;-69
2023/10/03 06:45:59;;;;;;;1999.90;999.90;;;21.00;99.90;;;;;;5073750;28;20937;-69
2023/10/03 06:48:26;;;;;;;1999.90;999.90;;;21.00;99.90;;;;;;5073932;28;20385;-68
2023/10/03 06:50:52;;;;;;;1999.90;999.90;;;20.90;99.90;;;;;;5073756;28;20431;-68
2023/10/03 06:53:18;;;;;;;1999.90;999.90;;;20.80;99.90;;;;;;5073771;28;20405;-68
2023/10/03 06:55:49;;;;;;;1999.90;999.90;;;20.70;99.90;;;;;;5077652;28;20457;-67
2023/10/03 06:58:15;;;;;;;1999.90;999.90;;;20.60;99.90;;;;;;5105584;28;20193;-68
2023/10/03 07:00:41;;;;;;;1999.90;999.90;;;20.60;99.90;;;;;;5101773;28;20432;-68
2023/10/03 07:03:06;;;;;;;1999.90;999.90;;;20.50;99.90;;;;;;5073632;28;20629;-67
2023/10/03 07:05:35;;;;;;;1999.90;999.90;;;20.50;99.90;;;;;;5073595;28;20176;-67
2023/10/03 07:08:00;;;;;;;1999.90;999.90;;;20.40;99.90;;;;;;5072416;28;20586;-67
2023/10/03 07:10:26;;;;;;;1999.90;999.90;;;20.40;99.90;;;;;;5085145;28;20526;-69
2023/10/03 07:12:52;;;;;;;1999.90;999.90;;;20.30;99.90;;;;;;5101389;28;20256;-68
2023/10/03 07:15:18;;;;;;;1999.90;999.90;;;20.30;99.90;;;;;;5093421;28;20244;-68
2023/10/03 07:17:44;;;;;;;1999.90;999.90;;;20.20;99.90;;;;;;5093658;28;20521;-68
2023/10/03 07:20:12;;;;;;;1999.90;999.90;;;20.20;99.90;;;;;;5093378;28;20432;-68
2023/10/03 07:22:39;;;;;;;1999.90;999.90;;;20.10;99.90;;;;;;5101882;28;20424;-68
2023/10/03 07:25:06;;;;;;;1999.90;999.90;;;20.10;99.90;;;;;;5093557;28;20416;-68
2023/10/03 07:27:33;;;;;;;1999.90;999.90;;;20.10;99.90;;;;;;5093295;28;20767;-69
2023/10/03 07:29:59;;;;;;;1999.90;999.90;;;20.10;99.90;;;;;;5095485;28;20432;-69
2023/10/03 07:32:25;;;;;;;1999.90;999.90;;;20.10;99.90;;;;;;5105326;28;20495;-68
2023/10/03 07:34:50;;;;;;;1999.90;999.90;;;20.20;99.90;;;;;;5113679;28;20568;-68
2023/10/03 07:37:17;;;;;;;1999.90;999.90;;;20.20;99.90;;;;;;5113450;28;20166;-68
2023/10/03 07:39:43;;;;;;;1999.90;999.90;;;20.30;99.90;;;;;;5113566;28;20202;-69
2023/10/03 07:42:11;;;;;;;1999.90;999.90;;;20.30;99.90;;;;;;5113619;28;20397;-68
2023/10/03 07:44:37;;;;;;;1999.90;999.90;;;20.30;99.90;;;;;;5113449;28;20186;-68
2023/10/03 07:47:03;;;;;;;1999.90;999.90;;;20.30;99.90;;;;;;5113318;28;20402;-68
2023/10/03 07:49:31;;;;;;;1999.90;999.90;;;20.20;99.90;;;;;;5113527;28;20185;-68
2023/10/03 07:51:59;;;;;;;1999.90;999.90;;;20.40;99.90;;;;;;5113379;28;20412;-69
2023/10/03 07:54:31;;;;;;;1999.90;999.90;;;20.40;99.90;;;;;;5113310;28;20395;-69
2023/10/03 07:57:05;;;;;;;1999.90;999.90;;;20.40;99.90;;;;;;5106420;28;20413;-68
2023/10/03 07:59:31;;;;;;;1999.90;999.90;;;20.60;99.90;;;;;;5104829;28;20904;-69
2023/10/03 08:02:04;;;;;;;1999.90;999.90;;;20.50;99.90;;;;;;5113170;28;20405;-68
2023/10/03 08:04:31;;;;;;;1999.90;999.90;;;20.60;99.90;;;;;;5113020;28;20497;-69
2023/10/03 08:06:57;;;;;;;1999.90;999.90;;;20.70;99.90;;;;;;5113031;28;20744;-69
2023/10/03 08:09:24;;;;;;;1999.90;999.90;;;20.70;99.90;;;;;;5112871;28;20390;-69
2023/10/03 08:11:52;;;;;;;1999.90;999.90;;;20.90;99.90;;;;;;5112957;28;20917;-69
2023/10/03 08:14:18;;;;;;;1999.90;999.90;;;21.10;99.90;;;;;;5112882;28;20746;-69
2023/10/03 08:16:46;;;;;;;1999.90;999.90;;;21.10;99.90;;;;;;5112735;28;20926;-69
2023/10/03 08:19:21;;;;;;;1999.90;999.90;;;21.30;99.90;;;;;;5112678;28;20418;-69
2023/10/03 08:21:48;;;;;;;1999.90;999.90;;;21.40;99.90;;;;;;5112729;28;20402;-69
2023/10/03 08:24:19;;;;;;;1999.90;999.90;;;21.40;99.90;;;;;;5112813;28;20401;-69
2023/10/03 08:26:51;;;;;;;1999.90;999.90;;;21.50;99.90;;;;;;5112595;28;20921;-69
2023/10/03 08:29:23;;;;;;;1999.90;999.90;;;21.20;99.90;;;;;;5112768;28;20467;-69
2023/10/03 08:31:50;;;;;;;1999.90;999.90;;;21.40;99.90;;;;;;5112746;28;20862;-69
2023/10/03 08:34:19;;;;;;;1999.90;999.90;;;21.30;99.90;;;;;;5098719;28;20394;-69
2023/10/03 08:36:45;;;;;;;1999.90;999.90;;;21.20;99.90;;;;;;5102844;28;20410;-69
2023/10/03 08:39:12;;;;;;;1999.90;999.90;;;21.10;99.90;;;;;;5094181;28;20391;-69
2023/10/03 08:42:15;;;;;;;1999.90;999.90;;;21.00;99.90;;;;;;5092068;28;20812;-69
2023/10/03 08:44:54;;;;;;;1999.90;999.90;;;21.00;99.90;;;;;;5085182;28;20425;-69
2023/10/03 08:47:31;;;;;;;1999.90;999.90;;;21.00;99.90;;;;;;5092062;28;20404;-69
2023/10/03 08:50:11;;;;;;;1999.90;999.90;;;21.10;99.90;;;;;;5092146;28;20840;-69
2023/10/03 08:52:48;;;;;;;1999.90;999.90;;;21.10;99.90;;;;;;5085296;28;20429;-69
2023/10/03 08:55:19;;;;;;;1999.90;999.90;;;21.00;99.90;;;;;;5084154;28;20453;-69
2023/10/03 08:57:48;;;;;;;1999.90;999.90;;;20.90;99.90;;;;;;5089612;28;20425;-69
2023/10/03 09:00:15;;;;;;;1999.90;999.90;;;20.80;99.90;;;;;;5078929;28;20466;-70
2023/10/03 09:02:49;;;;;;;1999.90;999.90;;;20.70;99.90;;;;;;5095538;28;20442;-68
2023/10/03 09:05:20;;;;;;;1999.90;999.90;;;20.60;99.90;;;;;;5086098;28;20408;-69
2023/10/03 09:07:47;;;;;;;1999.90;999.90;;;20.60;99.90;;;;;;5098331;28;20606;-69
2023/10/03 09:10:22;;;;;;;1999.90;999.90;;;20.60;99.90;;;;;;5099939;28;20452;-68
2023/10/03 09:13:04;;;;;;;1999.90;999.90;;;20.50;99.90;;;;;;5099005;28;20451;-68
2023/10/03 09:15:42;;;;;;;1999.90;999.90;;;20.40;99.90;;;;;;5100813;28;20480;-70
2023/10/03 09:18:10;;;;;;;1999.90;999.90;;;20.40;99.90;;;;;;5106583;28;20509;-68
2023/10/03 09:20:36;;;;;;;1999.90;999.90;;;20.40;99.90;;;;;;5108229;28;20457;-66
2023/10/03 09:23:06;;;;;;;1999.90;999.90;;;20.40;99.90;;;;;;5108192;28;20864;-69
2023/10/03 09:25:34;;;;;;;1999.90;999.90;;;20.60;99.90;;;;;;5107521;28;20468;-69
2023/10/03 09:28:06;;;;;;;1999.90;999.90;;;20.60;99.90;;;;;;5107860;28;20487;-66
2023/10/03 09:30:39;;;;;;;1999.90;999.90;;;20.70;99.90;;;;;;5107486;28;20430;-67
2023/10/03 09:33:06;;;;;;;1999.90;999.90;;;20.60;99.90;;;;;;5104626;28;20404;-69
2023/10/03 09:35:34;;;;;;;1999.90;999.90;;;20.60;99.90;;;;;;5112101;28;20460;-71
2023/10/03 09:38:06;;;;;;;1999.90;999.90;;;20.40;99.90;;;;;;5111933;28;20412;-68
2023/10/03 09:40:49;;;;;;;1999.90;999.90;;;20.30;99.90;;;;;;5116299;28;20436;-68
2023/10/03 09:43:19;;;;;;;1999.90;999.90;;;20.10;99.90;;;;;;5115040;28;20424;-70
2023/10/03 09:45:47;;;;;;;1999.90;999.90;;;20.10;99.90;;;;;;5112395;28;20430;-68
2023/10/03 09:48:14;;;;;;;1999.90;999.90;;;20.20;99.90;;;;;;5112102;28;20441;-70
2023/10/03 09:50:53;;;;;;;1999.90;999.90;;;20.30;99.90;;;;;;5110332;28;20503;-70
2023/10/03 09:53:19;;;;;;;1999.90;999.90;;;20.50;99.90;;;;;;5096850;28;20462;-70
2023/10/03 09:55:49;;;;;;;1999.90;999.90;;;20.60;99.90;;;;;;5113337;28;20508;-68
2023/10/03 09:58:24;;;;;;;1999.90;999.90;;;20.60;99.90;;;;;;5114057;28;20886;-71
2023/10/03 10:00:56;;;;;;;1999.90;999.90;;;20.70;99.90;;;;;;5113677;28;20448;-71
2023/10/03 10:03:26;;;;;;;1999.90;999.90;;;20.70;99.90;;;;;;5113141;28;20982;-71
2023/10/03 10:06:14;;;;;;;1999.90;999.90;;;20.70;99.90;;;;;;5114552;28;20419;-71
2023/10/03 10:08:58;;;;;;;1999.90;999.90;;;20.70;99.90;;;;;;5119857;28;20425;-71
2023/10/03 10:11:26;;;;;;;1999.90;999.90;;;20.70;99.90;;;;;;5121010;28;20474;-69
2023/10/03 10:14:08;;;;;;;1999.90;999.90;;;20.70;99.90;;;;;;5117909;28;20400;-70
2023/10/03 10:16:34;;;;;;;1999.90;999.90;;;20.60;99.90;;;;;;5111172;28;21254;-70
2023/10/03 10:19:01;;;;;;;1999.90;999.90;;;20.60;99.90;;;;;;5110591;28;20404;-70
2023/10/03 10:21:31;;;;;;;1999.90;999.90;;;20.60;99.90;;;;;;5110339;28;20839;-67
2023/10/03 10:24:15;;;;;;;1999.90;999.90;;;20.60;99.90;;;;;;5111356;28;20411;-69
2023/10/03 10:26:42;;;;;;;1999.90;999.90;;;20.40;99.90;;;;;;5110257;28;20872;-67
2023/10/03 10:29:09;;;;;;;1999.90;999.90;;;20.40;99.90;;;;;;5111386;28;20423;-70
2023/10/03 10:31:49;;;;;;;1999.90;999.90;;;20.30;99.90;;;;;;5110488;28;20452;-70
2023/10/03 10:34:18;;;;;;;1999.90;999.90;;;20.20;99.90;;;;;;5110694;28;20425;-69
2023/10/03 10:37:22;;;;;;;1999.90;999.90;;;20.20;99.90;;;;;;5098332;28;20432;-70
2023/10/03 10:39:54;;;;;;;1999.90;999.90;;;20.10;99.90;;;;;;5088313;28;20438;-69
2023/10/03 10:42:26;;;;;;;1999.90;999.90;;;20.00;99.90;;;;;;5093148;28;20416;-69
2023/10/03 10:45:04;;;;;;;1999.90;999.90;;;19.90;99.90;;;;;;5090550;28;20479;-70
2023/10/03 10:47:44;;;;;;;1999.90;999.90;;;19.90;99.90;;;;;;5090318;28;20923;-69
2023/10/03 10:50:09;;;;;;;1999.90;999.90;;;20.00;99.90;;;;;;5090295;28;20466;-69
2023/10/03 10:53:07;;;;;;;1999.90;999.90;;;20.10;99.90;;;;;;5088086;28;21005;-69
2023/10/03 10:55:33;;;;;;;1999.90;999.90;;;20.10;99.90;;;;;;5086165;28;20712;-69
2023/10/03 10:58:03;;;;;;;1999.90;999.90;;;19.60;99.90;;;;;;5089645;28;20469;-68
2023/10/03 11:00:29;;;;;;;1999.90;999.90;;;19.20;99.90;;;;;;5089891;28;20439;-69
2023/10/03 11:02:55;;;;;;;1999.90;999.90;;;18.80;99.90;;;;;;5089503;28;20532;-69
2023/10/03 11:05:20;;;;;;;1999.90;999.90;;;18.40;99.90;;;;;;5089741;28;20733;-68
2023/10/03 11:07:55;;;;;;;1999.90;999.90;;;18.00;99.90;;;;;;5089860;28;20493;-69
2023/10/03 11:10:21;;;;;;;1999.90;999.90;;;17.70;99.90;;;;;;5089986;28;20194;-69
2023/10/03 11:12:58;;;;;;;1999.90;999.90;;;17.40;99.90;;;;;;5088942;28;21054;-69
2023/10/03 11:15:24;;;;;;;1999.90;999.90;;;17.20;99.90;;;;;;5088414;28;20194;-68
2023/10/03 11:17:49;;;;;;;1999.90;999.90;;;17.10;99.90;;;;;;5089204;28;20501;-67
2023/10/03 11:20:16;;;;;;;1999.90;999.90;;;17.00;99.90;;;;;;5089166;28;20279;-70
2023/10/03 11:22:44;;;;;;;1999.90;999.90;;;17.10;99.90;;;;;;5088620;28;20182;-69
2023/10/03 11:25:10;;;;;;;1999.90;999.90;;;17.10;99.90;;;;;;5089937;28;20419;-69
2023/10/03 11:27:36;;;;;;;1999.90;999.90;;;17.10;99.90;;;;;;5089089;28;20413;-69
2023/10/03 11:30:25;;;;;;;1999.90;999.90;;;17.20;99.90;;;;;;5088360;28;20944;-70
2023/10/03 11:33:00;;;;;;;1999.90;999.90;;;17.30;99.90;;;;;;5089248;28;20412;-69
2023/10/03 11:35:26;;;;;;;1999.90;999.90;;;17.40;99.90;;;;;;5088508;28;20513;-70
2023/10/03 11:37:53;;;;;;;1999.90;999.90;;;17.40;99.90;;;;;;5088051;28;20822;-69
2023/10/03 11:40:23;;;;;;;1999.90;999.90;;;17.50;99.90;;;;;;5089019;28;20194;-69
2023/10/03 11:42:58;;;;;;;1999.90;999.90;;;17.50;99.90;;;;;;5089260;28;21142;-69
2023/10/03 11:45:29;;;;;;;1999.90;999.90;;;17.50;99.90;;;;;;5089076;28;20445;-69
2023/10/03 11:48:08;;;;;;;1999.90;999.90;;;17.50;99.90;;;;;;5088125;28;20425;-69
2023/10/03 11:50:38;;;;;;;1999.90;999.90;;;17.50;99.90;;;;;;5088080;28;20479;-69
2023/10/03 11:53:05;;;;;;;1999.90;999.90;;;17.50;99.90;;;;;;5088146;28;20918;-70
2023/10/03 11:55:36;;;;;;;1999.90;999.90;;;17.50;99.90;;;;;;5088034;28;20459;-70
2023/10/03 11:58:03;;;;;;;1999.90;999.90;;;17.40;99.90;;;;;;5088567;28;20446;-70
2023/10/03 12:00:29;;;;;;;1999.90;999.90;;;17.30;99.90;;;;;;5088104;28;20436;-70
2023/10/03 12:02:55;;;;;;;1999.90;999.90;;;17.30;99.90;;;;;;5087808;28;20433;-69
2023/10/03 12:05:22;;;;;;;1999.90;999.90;;;17.20;99.90;;;;;;5088457;28;20421;-70